createdAt,value
2023-03-31T00:00:27.709Z,11.60
2023-03-31T00:01:30.449Z,11.60
2023-03-31T00:02:32.143Z,11.60
2023-03-31T00:03:38.676Z,11.50
2023-03-31T00:04:53.172Z,11.50
2023-03-31T00:06:00.214Z,11.50
2023-03-31T00:07:01.647Z,11.60
2023-03-31T00:08:04.629Z,11.60
2023-03-31T00:09:11.801Z,11.60
2023-03-31T00:10:18.013Z,11.60
2023-03-31T00:11:22.269Z,11.60
2023-03-31T00:12:23.741Z,11.60
2023-03-31T00:13:25.276Z,11.60
2023-03-31T00:14:26.804Z,11.60
2023-03-31T00:15:29.452Z,11.70
2023-03-31T00:16:31.093Z,11.70
2023-03-31T00:17:35.735Z,11.60
2023-03-31T00:18:41.032Z,11.60
2023-03-31T00:19:42.547Z,11.60
2023-03-31T00:20:44.279Z,11.60
2023-03-31T00:21:51.593Z,11.60
2023-03-31T00:22:54.559Z,11.60
2023-03-31T00:23:58.662Z,11.60
2023-03-31T00:25:00.816Z,11.60
2023-03-31T00:26:02.457Z,11.60
2023-03-31T00:27:05.384Z,11.60
2023-03-31T00:28:07.423Z,11.60
2023-03-31T00:29:10.575Z,11.60
2023-03-31T00:30:13.879Z,11.60
2023-03-31T00:31:15.607Z,11.60
2023-03-31T00:32:17.162Z,11.60
2023-03-31T00:33:19.221Z,11.70
2023-03-31T00:34:21.131Z,11.60
2023-03-31T00:35:22.968Z,11.60
2023-03-31T00:36:31.738Z,11.60
2023-03-31T00:37:34.292Z,11.60
2023-03-31T00:38:36.032Z,11.60
2023-03-31T00:39:38.293Z,11.60
2023-03-31T00:40:46.165Z,11.70
2023-03-31T00:41:47.881Z,11.70
2023-03-31T00:42:49.397Z,11.70
2023-03-31T00:44:27.084Z,11.70
2023-03-31T00:45:30.340Z,11.70
2023-03-31T00:46:43.577Z,11.80
2023-03-31T00:47:53.279Z,11.90
2023-03-31T00:48:57.764Z,12.00
2023-03-31T00:49:59.504Z,12.10
2023-03-31T00:51:07.521Z,12.10
2023-03-31T00:52:13.404Z,12.10
2023-03-31T00:53:18.778Z,12.10
2023-03-31T00:54:23.444Z,12.10
2023-03-31T00:55:36.133Z,12.10
2023-03-31T00:56:41.871Z,12.20
2023-03-31T00:57:46.985Z,12.30
2023-03-31T00:58:49.882Z,12.20
2023-03-31T00:59:58.494Z,12.30
2023-03-31T01:01:03.358Z,12.30
2023-03-31T01:02:05.447Z,12.30
2023-03-31T01:03:10.100Z,12.30
2023-03-31T01:04:14.561Z,12.30
2023-03-31T01:05:15.993Z,12.30
2023-03-31T01:06:19.916Z,12.30
2023-03-31T01:07:31.090Z,12.20
2023-03-31T01:08:32.982Z,12.20
2023-03-31T01:09:35.127Z,12.20
2023-03-31T01:10:41.977Z,12.10
2023-03-31T01:11:46.282Z,12.10
2023-03-31T01:12:52.476Z,12.00
2023-03-31T01:13:56.339Z,12.00
2023-03-31T01:14:59.128Z,12.10
2023-03-31T01:16:01.011Z,12.20
2023-03-31T01:17:02.871Z,12.20
2023-03-31T01:18:07.070Z,12.10
2023-03-31T01:19:19.587Z,12.10
2023-03-31T01:20:57.898Z,12.10
2023-03-31T01:22:21.108Z,12.10
2023-03-31T01:23:46.532Z,12.00
2023-03-31T01:25:11.423Z,12.00
2023-03-31T01:26:39.890Z,11.90
2023-03-31T01:27:50.909Z,11.80
2023-03-31T01:29:11.428Z,11.80
2023-03-31T01:30:41.019Z,11.70
2023-03-31T01:32:20.966Z,11.80
2023-03-31T01:34:07.064Z,11.70
2023-03-31T01:35:44.071Z,11.70
2023-03-31T01:36:48.583Z,11.70
2023-03-31T01:38:32.952Z,11.70
2023-03-31T01:39:46.340Z,11.60
2023-03-31T01:41:07.761Z,11.60
2023-03-31T01:42:27.769Z,11.60
2023-03-31T01:43:41.411Z,11.60
2023-03-31T01:44:51.157Z,11.50
2023-03-31T01:46:00.712Z,11.50
2023-03-31T01:47:06.760Z,11.50
2023-03-31T01:48:18.134Z,11.60
2023-03-31T01:49:34.108Z,11.60
2023-03-31T01:50:59.393Z,11.50
2023-03-31T01:52:21.732Z,11.50
2023-03-31T01:53:45.254Z,11.40
2023-03-31T01:55:08.140Z,11.50
2023-03-31T01:56:15.922Z,11.50
2023-03-31T01:57:30.034Z,11.40
2023-03-31T01:58:48.503Z,11.40
2023-03-31T02:00:16.102Z,11.40
2023-03-31T02:01:26.728Z,11.40
2023-03-31T02:02:33.032Z,11.40
2023-03-31T02:03:39.289Z,11.40
2023-03-31T02:04:46.511Z,11.40
2023-03-31T02:05:57.974Z,11.40
2023-03-31T02:07:14.603Z,11.40
2023-03-31T02:08:23.110Z,11.40
2023-03-31T02:09:38.000Z,11.30
2023-03-31T02:10:42.818Z,11.40
2023-03-31T02:11:46.028Z,11.40
2023-03-31T02:12:50.241Z,11.30
2023-03-31T02:13:55.585Z,11.30
2023-03-31T02:14:59.837Z,11.20
2023-03-31T02:16:08.518Z,11.20
2023-03-31T02:17:18.078Z,11.20
2023-03-31T02:18:25.986Z,11.20
2023-03-31T02:19:32.840Z,11.10
2023-03-31T02:20:34.406Z,11.10
2023-03-31T02:21:39.066Z,11.10
2023-03-31T02:22:45.849Z,11.20
2023-03-31T02:23:51.305Z,11.10
2023-03-31T02:24:54.904Z,11.20
2023-03-31T02:26:07.882Z,11.20
2023-03-31T02:27:21.305Z,11.20
2023-03-31T02:28:26.370Z,11.10
2023-03-31T02:29:28.443Z,11.10
2023-03-31T02:30:45.340Z,11.10
2023-03-31T02:31:57.744Z,11.10
2023-03-31T02:32:59.994Z,11.10
2023-03-31T02:34:02.889Z,11.10
2023-03-31T02:35:09.502Z,11.10
2023-03-31T02:36:11.306Z,11.10
2023-03-31T02:37:14.567Z,11.00
2023-03-31T02:38:19.649Z,11.00
2023-03-31T02:39:32.314Z,11.00
2023-03-31T02:40:33.837Z,11.10
2023-03-31T02:41:36.961Z,11.10
2023-03-31T02:42:39.589Z,11.00
2023-03-31T02:43:41.309Z,11.00
2023-03-31T02:44:43.639Z,11.10
2023-03-31T02:45:47.513Z,11.00
2023-03-31T02:46:50.297Z,11.00
2023-03-31T02:47:51.819Z,11.00
2023-03-31T02:48:59.003Z,11.10
2023-03-31T02:50:02.927Z,11.00
2023-03-31T02:51:44.585Z,11.10
2023-03-31T02:53:10.330Z,11.10
2023-03-31T02:54:49.137Z,11.10
2023-03-31T02:56:12.705Z,11.10
2023-03-31T02:57:32.991Z,11.10
2023-03-31T02:58:45.496Z,11.10
2023-03-31T03:00:09.491Z,11.10
2023-03-31T03:01:42.769Z,11.00
2023-03-31T03:03:08.725Z,11.10
2023-03-31T03:04:49.711Z,11.00
2023-03-31T03:06:05.915Z,11.00
2023-03-31T03:07:51.906Z,11.00
2023-03-31T03:09:11.507Z,11.10
2023-03-31T03:10:23.351Z,11.10
2023-03-31T03:11:51.496Z,11.10
2023-03-31T03:13:14.625Z,11.10
2023-03-31T03:14:51.027Z,11.10
2023-03-31T03:16:27.443Z,11.10
2023-03-31T03:17:48.983Z,11.10
2023-03-31T03:19:02.354Z,11.10
2023-03-31T03:20:10.808Z,11.10
2023-03-31T03:21:12.288Z,11.10
2023-03-31T03:22:13.704Z,11.10
2023-03-31T03:23:16.918Z,11.20
2023-03-31T03:24:18.976Z,11.10
2023-03-31T03:25:20.882Z,11.20
2023-03-31T03:26:28.128Z,11.20
2023-03-31T03:27:30.378Z,11.20
2023-03-31T03:28:31.799Z,11.20
2023-03-31T03:29:33.220Z,11.30
2023-03-31T03:30:35.310Z,11.20
2023-03-31T03:31:37.016Z,11.30
2023-03-31T03:32:38.789Z,11.30
2023-03-31T03:33:40.773Z,11.30
2023-03-31T03:34:42.302Z,11.30
2023-03-31T03:35:43.934Z,11.30
2023-03-31T03:36:45.957Z,11.40
2023-03-31T03:37:47.608Z,11.40
2023-03-31T03:38:49.492Z,11.40
2023-03-31T03:39:50.932Z,11.40
2023-03-31T03:40:55.158Z,11.40
2023-03-31T03:41:56.765Z,11.40
2023-03-31T03:42:58.176Z,11.40
2023-03-31T03:44:03.137Z,11.40
2023-03-31T03:45:05.317Z,11.40
2023-03-31T03:46:07.119Z,11.50
2023-03-31T03:47:10.196Z,11.40
2023-03-31T03:48:11.887Z,11.40
2023-03-31T03:49:13.342Z,11.40
2023-03-31T03:50:16.160Z,11.40
2023-03-31T03:51:17.970Z,11.40
2023-03-31T03:52:19.431Z,11.40
2023-03-31T03:53:21.062Z,11.50
2023-03-31T03:54:22.433Z,11.50
2023-03-31T03:55:23.782Z,11.40
2023-03-31T03:56:26.359Z,11.40
2023-03-31T03:57:28.045Z,11.50
2023-03-31T03:58:29.611Z,11.50
2023-03-31T03:59:30.957Z,11.50
2023-03-31T04:00:32.784Z,11.50
2023-03-31T04:01:34.266Z,11.50
2023-03-31T04:02:36.364Z,11.50
2023-03-31T04:03:37.969Z,11.60
2023-03-31T04:04:39.535Z,11.60
2023-03-31T04:05:40.938Z,11.60
2023-03-31T04:06:42.407Z,11.60
2023-03-31T04:07:43.785Z,11.60
2023-03-31T04:08:45.771Z,11.60
2023-03-31T04:09:47.207Z,11.60
2023-03-31T04:10:49.473Z,11.70
2023-03-31T04:11:50.989Z,11.60
2023-03-31T04:12:52.636Z,11.70
2023-03-31T04:13:54.188Z,11.70
2023-03-31T04:14:55.608Z,11.70
2023-03-31T04:15:57.037Z,11.70
2023-03-31T04:16:58.623Z,11.70
2023-03-31T04:18:00.156Z,11.60
2023-03-31T04:19:04.667Z,11.70
2023-03-31T04:20:10.303Z,11.70
2023-03-31T04:21:15.490Z,11.70
2023-03-31T04:22:20.553Z,11.70
2023-03-31T04:23:23.534Z,11.60
2023-03-31T04:24:32.701Z,11.60
2023-03-31T04:25:38.585Z,11.60
2023-03-31T04:26:43.327Z,11.70
2023-03-31T04:27:50.746Z,11.60
2023-03-31T04:28:52.408Z,11.60
2023-03-31T04:29:57.206Z,11.70
2023-03-31T04:30:58.956Z,11.80
2023-03-31T04:32:01.300Z,12.00
2023-03-31T04:33:04.250Z,12.10
2023-03-31T04:34:07.134Z,12.30
2023-03-31T04:35:09.043Z,12.50
2023-03-31T04:36:19.910Z,12.90
2023-03-31T04:37:21.427Z,13.00
2023-03-31T04:38:27.082Z,13.00
2023-03-31T04:39:30.830Z,13.10
2023-03-31T04:40:32.408Z,13.20
2023-03-31T04:41:33.986Z,13.20
2023-03-31T04:42:36.117Z,13.20
2023-03-31T04:43:37.590Z,13.30
2023-03-31T04:44:39.207Z,13.30
2023-03-31T04:45:41.128Z,13.30
2023-03-31T04:46:42.721Z,13.30
2023-03-31T04:47:44.342Z,13.40
2023-03-31T04:48:46.131Z,13.40
2023-03-31T04:49:47.473Z,13.40
2023-03-31T04:50:48.978Z,13.40
2023-03-31T04:51:50.837Z,13.40
2023-03-31T04:52:52.220Z,13.40
2023-03-31T04:53:54.122Z,13.40
2023-03-31T04:54:55.728Z,13.40
2023-03-31T04:55:57.590Z,13.30
2023-03-31T04:56:59.625Z,13.30
2023-03-31T04:58:01.792Z,13.20
2023-03-31T04:59:06.672Z,13.20
2023-03-31T05:00:11.126Z,13.10
2023-03-31T05:01:18.449Z,13.10
2023-03-31T05:02:25.097Z,13.00
2023-03-31T05:03:27.561Z,12.90
2023-03-31T05:04:29.294Z,12.80
2023-03-31T05:05:30.909Z,12.80
2023-03-31T05:06:33.568Z,12.70
2023-03-31T05:07:34.966Z,12.60
2023-03-31T05:08:37.263Z,12.60
2023-03-31T05:09:38.712Z,12.60
2023-03-31T05:10:40.842Z,12.50
2023-03-31T05:11:42.661Z,12.50
2023-03-31T05:12:44.538Z,12.40
2023-03-31T05:13:46.646Z,12.40
2023-03-31T05:14:48.246Z,12.50
2023-03-31T05:15:51.582Z,12.40
2023-03-31T05:16:58.068Z,12.40
2023-03-31T05:18:00.024Z,12.30
2023-03-31T05:19:01.712Z,12.30
2023-03-31T05:20:06.899Z,12.20
2023-03-31T05:21:14.102Z,12.20
2023-03-31T05:22:20.431Z,12.10
2023-03-31T05:23:22.100Z,12.00
2023-03-31T05:24:23.587Z,12.00
2023-03-31T05:25:25.004Z,12.00
2023-03-31T05:26:27.120Z,12.00
2023-03-31T05:27:28.532Z,11.90
2023-03-31T05:28:31.358Z,11.90
2023-03-31T05:29:33.955Z,12.00
2023-03-31T05:30:35.589Z,11.90
2023-03-31T05:31:37.147Z,11.90
2023-03-31T05:32:38.702Z,11.90
2023-03-31T05:33:42.179Z,11.90
2023-03-31T05:34:43.950Z,11.80
2023-03-31T05:35:45.721Z,11.90
2023-03-31T05:36:53.493Z,11.80
2023-03-31T05:37:54.938Z,11.90
2023-03-31T05:38:56.353Z,11.90
2023-03-31T05:39:58.774Z,11.80
2023-03-31T05:41:00.488Z,11.80
2023-03-31T05:42:02.838Z,11.80
2023-03-31T05:43:04.667Z,11.70
2023-03-31T05:44:06.606Z,11.70
2023-03-31T05:45:09.349Z,11.60
2023-03-31T05:46:11.382Z,11.60
2023-03-31T05:47:13.371Z,11.60
2023-03-31T05:48:14.734Z,11.60
2023-03-31T05:49:17.023Z,11.60
2023-03-31T05:50:18.562Z,11.60
2023-03-31T05:51:19.992Z,11.70
2023-03-31T05:52:21.471Z,11.70
2023-03-31T05:53:23.448Z,11.60
2023-03-31T05:54:25.255Z,11.60
2023-03-31T05:55:26.686Z,11.60
2023-03-31T05:56:28.771Z,11.60
2023-03-31T05:57:30.642Z,11.50
2023-03-31T05:58:33.753Z,11.60
2023-03-31T05:59:36.284Z,11.50
2023-03-31T06:00:37.945Z,11.50
2023-03-31T06:01:40.421Z,11.40
2023-03-31T06:02:42.672Z,11.40
2023-03-31T06:03:44.278Z,11.30
2023-03-31T06:04:46.124Z,11.30
2023-03-31T06:05:49.147Z,11.20
2023-03-31T06:06:50.614Z,11.20
2023-03-31T06:07:52.657Z,11.20
2023-03-31T06:08:54.619Z,11.10
2023-03-31T06:09:56.166Z,11.00
2023-03-31T06:10:58.231Z,10.90
2023-03-31T06:12:00.511Z,10.80
2023-03-31T06:13:02.613Z,10.60
2023-03-31T06:14:04.602Z,10.30
2023-03-31T06:15:06.578Z,10.30
2023-03-31T06:16:12.518Z,10.10
2023-03-31T06:17:14.133Z,10.10
2023-03-31T06:18:15.624Z,10.10
2023-03-31T06:19:17.337Z,10.00
2023-03-31T06:20:27.938Z,10.00
2023-03-31T06:21:30.625Z,9.90
2023-03-31T06:22:32.915Z,9.90
2023-03-31T06:23:34.973Z,9.90
2023-03-31T06:24:36.408Z,9.90
2023-03-31T06:25:50.348Z,9.90
2023-03-31T06:26:53.995Z,9.90
2023-03-31T06:27:55.728Z,9.90
2023-03-31T06:28:57.312Z,9.90
2023-03-31T06:29:58.753Z,9.90
2023-03-31T06:31:04.547Z,9.90
2023-03-31T06:32:06.706Z,9.90
2023-03-31T06:33:08.664Z,9.90
2023-03-31T06:34:10.820Z,10.00
2023-03-31T06:35:12.328Z,10.00
2023-03-31T06:36:17.005Z,10.00
2023-03-31T06:37:18.504Z,10.00
2023-03-31T06:38:19.905Z,10.10
2023-03-31T06:39:21.712Z,10.10
2023-03-31T06:40:23.760Z,10.10
2023-03-31T06:41:26.449Z,10.10
2023-03-31T06:42:27.918Z,10.10
2023-03-31T06:43:30.850Z,10.10
2023-03-31T06:44:32.310Z,10.20
2023-03-31T06:45:33.764Z,10.20
2023-03-31T06:46:35.314Z,10.20
2023-03-31T06:47:41.450Z,10.30
2023-03-31T06:48:43.020Z,10.30
2023-03-31T06:49:44.624Z,10.30
2023-03-31T06:50:46.545Z,10.20
2023-03-31T06:51:48.095Z,10.30
2023-03-31T06:52:52.734Z,10.20
2023-03-31T06:53:54.317Z,10.20
2023-03-31T06:54:56.135Z,10.20
2023-03-31T06:55:59.102Z,10.20
2023-03-31T06:57:00.743Z,10.20
2023-03-31T06:58:02.234Z,10.10
2023-03-31T06:59:03.805Z,10.10
2023-03-31T07:00:07.727Z,10.10
2023-03-31T07:01:11.281Z,10.10
2023-03-31T07:02:13.005Z,10.00
2023-03-31T07:03:17.042Z,10.00
2023-03-31T07:04:18.897Z,10.00
2023-03-31T07:05:26.759Z,10.00
2023-03-31T07:06:28.240Z,10.00
2023-03-31T07:07:32.693Z,10.00
2023-03-31T07:08:34.346Z,10.00
2023-03-31T07:09:35.876Z,10.10
2023-03-31T07:10:37.479Z,10.10
2023-03-31T07:11:39.147Z,10.10
2023-03-31T07:12:41.201Z,10.10
2023-03-31T07:13:42.590Z,10.20
2023-03-31T07:14:44.247Z,10.20
2023-03-31T07:15:48.629Z,10.20
2023-03-31T07:16:50.961Z,10.30
2023-03-31T07:18:01.956Z,10.30
2023-03-31T07:19:03.947Z,10.40
2023-03-31T07:20:10.720Z,10.40
2023-03-31T07:21:12.394Z,10.40
2023-03-31T07:22:15.027Z,10.40
2023-03-31T07:23:17.082Z,10.50
2023-03-31T07:24:18.553Z,10.50
2023-03-31T07:25:19.976Z,10.60
2023-03-31T07:26:22.210Z,10.60
2023-03-31T07:27:26.216Z,10.60
2023-03-31T07:28:32.086Z,10.60
2023-03-31T07:29:33.482Z,10.70
2023-03-31T07:30:35.010Z,10.70
2023-03-31T07:31:36.534Z,10.70
2023-03-31T07:32:40.974Z,10.70
2023-03-31T07:33:42.451Z,10.70
2023-03-31T07:34:43.925Z,10.80
2023-03-31T07:35:46.999Z,10.80
2023-03-31T07:36:56.142Z,10.80
2023-03-31T07:37:57.810Z,10.80
2023-03-31T07:38:59.543Z,10.90
2023-03-31T07:40:01.519Z,10.90
2023-03-31T07:41:09.089Z,11.00
2023-03-31T07:42:12.036Z,11.00
2023-03-31T07:43:13.604Z,11.00
2023-03-31T07:44:17.493Z,11.10
2023-03-31T07:45:24.887Z,11.20
2023-03-31T07:46:28.651Z,11.30
2023-03-31T07:47:30.670Z,11.30
2023-03-31T07:48:32.722Z,11.30
2023-03-31T07:49:35.677Z,11.40
2023-03-31T07:50:37.127Z,11.40
2023-03-31T07:51:42.497Z,11.50
2023-03-31T07:52:46.910Z,11.60
2023-03-31T07:53:52.814Z,11.60
2023-03-31T07:54:54.479Z,11.70
2023-03-31T07:55:56.167Z,11.70
2023-03-31T07:57:01.576Z,11.80
2023-03-31T07:58:03.108Z,11.80
2023-03-31T07:59:05.064Z,11.80
2023-03-31T08:00:11.976Z,11.90
2023-03-31T08:01:19.029Z,12.00
2023-03-31T08:02:20.849Z,12.00
2023-03-31T08:03:22.310Z,12.00
2023-03-31T08:04:23.967Z,12.10
2023-03-31T08:05:25.483Z,12.10
2023-03-31T08:06:29.047Z,12.10
2023-03-31T08:07:33.404Z,12.10
2023-03-31T08:08:34.996Z,12.10
2023-03-31T08:09:36.600Z,12.20
2023-03-31T08:10:38.015Z,12.20
2023-03-31T08:11:39.445Z,12.20
2023-03-31T08:12:41.929Z,12.20
2023-03-31T08:13:43.447Z,12.20
2023-03-31T08:14:44.892Z,12.20
2023-03-31T08:15:46.580Z,12.20
2023-03-31T08:16:48.488Z,12.20
2023-03-31T08:17:50.611Z,12.20
2023-03-31T08:18:52.692Z,12.30
2023-03-31T08:19:54.632Z,12.30
2023-03-31T08:20:56.428Z,12.40
2023-03-31T08:21:57.872Z,12.50
2023-03-31T08:23:00.175Z,12.50
2023-03-31T08:24:01.589Z,12.60
2023-03-31T08:25:04.491Z,12.70
2023-03-31T08:26:17.241Z,12.80
2023-03-31T08:27:20.020Z,12.90
2023-03-31T08:28:21.633Z,13.00
2023-03-31T08:29:23.059Z,13.10
2023-03-31T08:30:24.459Z,13.10
2023-03-31T08:31:27.533Z,13.20
2023-03-31T08:32:29.473Z,13.20
2023-03-31T08:33:30.837Z,13.30
2023-03-31T08:34:32.521Z,13.30
2023-03-31T08:35:35.405Z,13.40
2023-03-31T08:36:37.421Z,13.40
2023-03-31T08:37:39.817Z,13.40
2023-03-31T08:38:45.986Z,13.50
2023-03-31T08:39:47.877Z,13.50
2023-03-31T08:40:49.315Z,13.60
2023-03-31T08:42:01.505Z,13.70
2023-03-31T08:43:11.029Z,13.80
2023-03-31T08:44:23.645Z,13.90
2023-03-31T08:45:31.169Z,14.10
2023-03-31T08:46:35.788Z,14.10
2023-03-31T08:47:39.124Z,14.20
2023-03-31T08:48:49.599Z,14.30
2023-03-31T08:49:59.169Z,14.40
2023-03-31T08:51:08.173Z,14.50
2023-03-31T08:52:17.418Z,14.50
2023-03-31T08:53:45.283Z,14.60
2023-03-31T08:54:51.928Z,14.70
2023-03-31T08:55:56.776Z,14.70
2023-03-31T08:56:58.660Z,14.80
2023-03-31T08:58:06.286Z,14.80
2023-03-31T08:59:24.191Z,14.80
2023-03-31T09:00:26.537Z,14.80
2023-03-31T09:02:05.031Z,14.70
2023-03-31T09:03:28.545Z,14.70
2023-03-31T09:04:32.822Z,14.60
2023-03-31T09:05:59.434Z,14.60
2023-03-31T09:07:20.491Z,14.60
2023-03-31T09:08:33.694Z,14.70
2023-03-31T09:10:09.277Z,14.70
2023-03-31T09:11:32.074Z,14.70
2023-03-31T09:12:54.415Z,14.70
2023-03-31T09:14:06.823Z,14.70
2023-03-31T09:15:16.175Z,14.70
2023-03-31T09:16:31.027Z,14.80
2023-03-31T09:17:42.890Z,14.70
2023-03-31T09:18:46.837Z,14.70
2023-03-31T09:19:57.313Z,14.60
2023-03-31T09:21:16.317Z,14.70
2023-03-31T09:22:26.009Z,14.70
2023-03-31T09:23:30.627Z,14.70
2023-03-31T09:24:36.709Z,14.70
2023-03-31T09:25:41.588Z,14.70
2023-03-31T09:26:50.639Z,14.70
2023-03-31T09:27:54.317Z,14.70
2023-03-31T09:28:59.417Z,14.70
2023-03-31T09:30:16.271Z,14.70
2023-03-31T09:31:20.907Z,14.80
2023-03-31T09:32:28.745Z,14.80
2023-03-31T09:33:32.522Z,14.70
2023-03-31T09:34:35.001Z,14.70
2023-03-31T09:35:36.811Z,14.70
2023-03-31T09:36:38.335Z,14.60
2023-03-31T09:37:39.968Z,14.60
2023-03-31T09:38:43.743Z,14.60
2023-03-31T09:39:45.968Z,14.60
2023-03-31T09:40:48.108Z,14.60
2023-03-31T09:41:51.181Z,14.60
2023-03-31T09:42:58.799Z,14.50
2023-03-31T09:44:00.858Z,14.60
2023-03-31T09:45:02.730Z,14.60
2023-03-31T09:46:13.264Z,14.70
2023-03-31T09:47:30.068Z,14.80
2023-03-31T09:48:35.986Z,14.80
2023-03-31T09:49:39.043Z,14.80
2023-03-31T09:50:53.118Z,14.80
2023-03-31T09:52:14.336Z,14.80
2023-03-31T09:53:38.579Z,14.90
2023-03-31T09:54:51.735Z,14.90
2023-03-31T09:55:57.461Z,15.00
2023-03-31T09:56:59.240Z,15.00
2023-03-31T09:58:04.233Z,15.10
2023-03-31T09:59:05.922Z,15.10
2023-03-31T10:00:19.188Z,15.20
2023-03-31T10:01:23.396Z,15.30
2023-03-31T10:02:35.807Z,15.40
2023-03-31T10:03:56.465Z,15.50
2023-03-31T10:04:58.847Z,15.70
2023-03-31T10:06:00.509Z,15.70
2023-03-31T10:07:05.122Z,15.80
2023-03-31T10:08:30.509Z,15.90
2023-03-31T10:09:34.208Z,16.10
2023-03-31T10:10:36.106Z,16.20
2023-03-31T10:11:38.121Z,16.10
2023-03-31T10:12:40.273Z,16.20
2023-03-31T10:14:04.254Z,16.20
2023-03-31T10:15:27.758Z,16.20
2023-03-31T10:16:47.175Z,16.00
2023-03-31T10:17:55.062Z,16.00
2023-03-31T10:19:20.991Z,16.10
2023-03-31T10:20:50.075Z,16.20
2023-03-31T10:21:59.470Z,16.30
2023-03-31T10:23:25.462Z,16.30
2023-03-31T10:24:38.081Z,16.20
2023-03-31T10:25:40.473Z,15.90
2023-03-31T10:26:42.517Z,15.90
2023-03-31T10:27:48.349Z,15.70
2023-03-31T10:28:52.741Z,15.70
2023-03-31T10:30:08.422Z,15.70
2023-03-31T10:31:11.399Z,15.70
2023-03-31T10:32:24.595Z,15.70
2023-03-31T10:33:28.490Z,15.70
2023-03-31T10:34:31.092Z,15.80
2023-03-31T10:35:34.650Z,15.90
2023-03-31T10:36:36.531Z,16.00
2023-03-31T10:37:38.059Z,16.10
2023-03-31T10:38:44.978Z,16.20
2023-03-31T10:39:47.795Z,16.30
2023-03-31T10:40:55.514Z,16.40
2023-03-31T10:41:56.965Z,16.50
2023-03-31T10:43:05.588Z,16.60
2023-03-31T10:44:07.110Z,16.30
2023-03-31T10:45:35.565Z,16.20
2023-03-31T10:46:47.656Z,16.10
2023-03-31T10:47:52.828Z,16.00
2023-03-31T10:48:54.316Z,16.00
2023-03-31T10:49:59.005Z,15.70
2023-03-31T10:51:06.396Z,15.80
2023-03-31T10:52:22.805Z,15.90
2023-03-31T10:53:24.335Z,15.90
2023-03-31T10:54:26.668Z,16.00
2023-03-31T10:55:51.970Z,16.00
2023-03-31T10:56:57.589Z,15.80
2023-03-31T10:58:16.459Z,15.90
2023-03-31T10:59:29.912Z,16.00
2023-03-31T11:01:17.033Z,16.20
2023-03-31T11:02:39.063Z,16.20
2023-03-31T11:04:07.928Z,16.20
2023-03-31T11:05:15.818Z,16.00
2023-03-31T11:06:23.036Z,16.00
2023-03-31T11:07:56.580Z,15.90
2023-03-31T11:09:21.165Z,16.00
2023-03-31T11:10:41.421Z,16.10
2023-03-31T11:12:08.500Z,16.20
2023-03-31T11:13:34.086Z,16.20
2023-03-31T11:15:16.141Z,16.00
2023-03-31T11:16:51.186Z,15.90
2023-03-31T11:18:14.830Z,15.70
2023-03-31T11:19:43.269Z,15.70
2023-03-31T11:20:53.134Z,15.50
2023-03-31T11:21:57.690Z,15.50
2023-03-31T11:23:26.481Z,15.40
2023-03-31T11:24:56.786Z,15.50
2023-03-31T11:26:40.436Z,15.50
2023-03-31T11:28:00.454Z,15.60
2023-03-31T11:29:26.052Z,15.50
2023-03-31T11:31:08.786Z,15.50
2023-03-31T11:32:33.425Z,15.50
2023-03-31T11:34:16.598Z,15.60
2023-03-31T11:35:39.016Z,15.80
2023-03-31T11:36:52.137Z,15.80
2023-03-31T11:38:11.618Z,15.90
2023-03-31T11:39:33.867Z,16.00
2023-03-31T11:40:54.316Z,15.90
2023-03-31T11:42:03.917Z,16.00
2023-03-31T11:43:32.826Z,15.90
2023-03-31T11:44:46.117Z,15.70
2023-03-31T11:45:51.430Z,15.70
2023-03-31T11:47:00.039Z,15.80
2023-03-31T11:48:07.817Z,15.80
2023-03-31T11:49:18.014Z,15.80
2023-03-31T11:50:29.341Z,15.80
2023-03-31T11:51:49.027Z,15.60
2023-03-31T11:53:00.440Z,15.60
2023-03-31T11:54:06.437Z,15.50
2023-03-31T11:55:21.723Z,15.30
2023-03-31T11:56:31.982Z,15.00
2023-03-31T11:57:36.518Z,14.60
2023-03-31T11:58:56.237Z,14.50
2023-03-31T12:00:19.228Z,14.30
2023-03-31T12:01:33.723Z,14.10
2023-03-31T12:02:48.277Z,13.90
2023-03-31T12:04:05.038Z,13.60
2023-03-31T12:05:09.781Z,13.50
2023-03-31T12:06:19.634Z,13.40
2023-03-31T12:07:44.202Z,13.30
2023-03-31T12:09:00.725Z,13.40
2023-03-31T12:10:20.248Z,13.40
2023-03-31T12:11:21.753Z,13.50
2023-03-31T12:12:29.035Z,13.50
2023-03-31T12:13:56.258Z,13.50
2023-03-31T12:15:22.398Z,13.60
2023-03-31T12:17:07.610Z,13.70
2023-03-31T12:18:20.808Z,13.70
2023-03-31T12:19:33.712Z,13.80
2023-03-31T12:20:41.170Z,13.80
2023-03-31T12:21:52.486Z,13.90
2023-03-31T12:22:55.828Z,13.90
2023-03-31T12:23:57.318Z,13.90
2023-03-31T12:24:59.844Z,14.00
2023-03-31T12:26:29.223Z,14.00
2023-03-31T12:27:40.469Z,14.10
2023-03-31T12:28:44.116Z,14.20
2023-03-31T12:29:58.543Z,14.40
2023-03-31T12:31:03.230Z,14.60
2023-03-31T12:32:14.714Z,14.80
2023-03-31T12:33:27.109Z,15.00
2023-03-31T12:34:30.744Z,15.20
2023-03-31T12:36:03.988Z,15.30
2023-03-31T12:37:42.566Z,15.40
2023-03-31T12:38:55.227Z,15.60
2023-03-31T12:40:05.669Z,15.80
2023-03-31T12:41:15.711Z,15.90
2023-03-31T12:42:35.388Z,15.90
2023-03-31T12:43:48.863Z,15.80
2023-03-31T12:45:10.985Z,15.80
2023-03-31T12:46:51.698Z,15.90
2023-03-31T12:48:17.777Z,15.90
2023-03-31T12:49:39.809Z,16.00
2023-03-31T12:50:55.021Z,16.10
2023-03-31T12:52:20.491Z,16.20
2023-03-31T12:53:45.412Z,16.20
2023-03-31T12:55:05.994Z,16.20
2023-03-31T12:56:08.641Z,16.10
2023-03-31T12:57:10.528Z,16.10
2023-03-31T12:58:39.644Z,16.10
2023-03-31T12:59:44.192Z,15.90
2023-03-31T13:01:05.805Z,15.90
2023-03-31T13:02:10.582Z,16.00
2023-03-31T13:03:42.440Z,16.00
2023-03-31T13:04:44.981Z,16.00
2023-03-31T13:05:47.567Z,16.00
2023-03-31T13:06:54.639Z,16.00
2023-03-31T13:07:56.431Z,15.90
2023-03-31T13:08:59.287Z,15.80
2023-03-31T13:10:18.849Z,15.90
2023-03-31T13:11:44.617Z,15.80
2023-03-31T13:13:01.543Z,15.80
2023-03-31T13:14:22.596Z,15.80
2023-03-31T13:15:24.950Z,15.60
2023-03-31T13:16:26.837Z,15.50
2023-03-31T13:17:36.927Z,15.50
2023-03-31T13:18:43.596Z,15.50
2023-03-31T13:19:47.332Z,15.40
2023-03-31T13:21:09.310Z,15.30
2023-03-31T13:22:29.268Z,15.20
2023-03-31T13:23:37.659Z,15.10
2023-03-31T13:24:39.145Z,15.00
2023-03-31T13:25:51.684Z,15.00
2023-03-31T13:26:56.820Z,15.00
2023-03-31T13:28:10.048Z,14.90
2023-03-31T13:29:21.599Z,14.80
2023-03-31T13:30:41.494Z,14.70
2023-03-31T13:32:01.542Z,14.70
2023-03-31T13:33:18.234Z,14.30
2023-03-31T13:34:20.764Z,13.90
2023-03-31T13:35:27.849Z,13.50
2023-03-31T13:36:32.181Z,13.10
2023-03-31T13:38:03.207Z,12.70
2023-03-31T13:39:30.972Z,12.10
2023-03-31T13:40:50.846Z,11.60
2023-03-31T13:42:23.189Z,11.20
2023-03-31T13:44:01.170Z,10.70
2023-03-31T13:45:38.854Z,10.10
2023-03-31T13:46:51.394Z,9.80
2023-03-31T13:48:02.648Z,9.60
2023-03-31T13:49:33.749Z,9.50
2023-03-31T13:50:41.869Z,9.50
2023-03-31T13:51:53.273Z,9.50
2023-03-31T13:53:28.430Z,9.40
2023-03-31T13:54:51.588Z,9.40
2023-03-31T13:56:20.753Z,9.40
2023-03-31T13:57:45.830Z,9.40
2023-03-31T13:59:17.783Z,9.40
2023-03-31T14:00:40.963Z,9.40
2023-03-31T14:02:16.360Z,9.50
2023-03-31T14:03:52.436Z,9.50
2023-03-31T14:05:17.330Z,9.40
2023-03-31T14:06:34.378Z,9.40
2023-03-31T14:07:46.292Z,9.50
2023-03-31T14:08:54.338Z,9.60
2023-03-31T14:09:58.379Z,9.60
2023-03-31T14:11:24.179Z,9.60
2023-03-31T14:12:35.852Z,9.70
2023-03-31T14:13:37.737Z,9.90
2023-03-31T14:14:41.079Z,9.90
2023-03-31T14:15:54.105Z,9.90
2023-03-31T14:17:01.416Z,10.00
2023-03-31T14:18:05.053Z,10.10
2023-03-31T14:19:35.638Z,10.20
2023-03-31T14:20:48.664Z,10.30
2023-03-31T14:22:06.028Z,10.40
2023-03-31T14:23:40.961Z,10.50
2023-03-31T14:25:08.063Z,10.50
2023-03-31T14:26:31.402Z,10.60
2023-03-31T14:28:05.230Z,10.60
2023-03-31T14:29:28.174Z,10.60
2023-03-31T14:30:33.255Z,10.60
2023-03-31T14:31:44.083Z,10.50
2023-03-31T14:33:04.515Z,10.50
2023-03-31T14:34:49.803Z,10.60
2023-03-31T14:36:33.701Z,10.50
2023-03-31T14:37:35.363Z,10.60
2023-03-31T14:38:37.994Z,10.60
2023-03-31T14:39:51.422Z,10.50
2023-03-31T14:40:56.470Z,10.50
2023-03-31T14:42:05.823Z,10.50
2023-03-31T14:43:11.152Z,10.50
2023-03-31T14:44:16.163Z,10.60
2023-03-31T14:45:25.353Z,10.60
2023-03-31T14:46:29.873Z,10.60
2023-03-31T14:47:31.938Z,10.70
2023-03-31T14:48:45.188Z,10.80